Time;durP1;ratioP1;P1;durP2;ratioP2;P2;SDS_P1;SDS_P2;PMS_P1;PMS_P2;Temp;Humidity;BMP_temperature;BMP_pressure;BME280_temperature;BME280_humidity;BME280_pressure;Samples;Min_cycle;Max_cycle;Signal;HPM_P1;HPM_P2
2022/12/24 03:03:29;;;;;;;84.70;45.73;;;;;;;1.98;94.71;93753.96;1833204;77;26300;-42
2022/12/24 03:06:13;;;;;;;77.92;44.30;;;;;;;1.89;94.35;93747.73;1790822;79;20938;-43
2022/12/24 03:08:45;;;;;;;82.27;46.25;;;;;;;1.87;94.34;93741.96;1668233;85;22117;-44
2022/12/24 03:11:14;;;;;;;86.50;46.37;;;;;;;1.92;94.64;93752.32;1591715;87;21109;-43
2022/12/24 03:13:42;;;;;;;88.52;48.63;;;;;;;2.01;94.83;93749.84;1550120;92;21027;-43
2022/12/24 03:16:12;;;;;;;103.60;54.08;;;;;;;2.09;94.94;93753.93;1532355;91;21061;-44
2022/12/24 03:18:42;;;;;;;84.07;48.35;;;;;;;2.15;94.59;93747.43;1579491;88;21023;-43
2022/12/24 03:21:23;;;;;;;111.68;56.85;;;;;;;2.19;94.30;93749.47;1557764;90;21169;-43
2022/12/24 03:23:50;;;;;;;81.75;44.60;;;;;;;2.25;94.38;93749.16;1484016;95;21715;-42
2022/12/24 03:26:17;;;;;;;88.00;49.90;;;;;;;2.35;94.26;93738.69;1484629;96;21169;-44
2022/12/24 03:28:44;;;;;;;91.12;52.35;;;;;;;2.34;93.81;93740.62;1529053;92;21226;-42
2022/12/24 03:31:11;;;;;;;103.97;54.03;;;;;;;2.39;93.95;93738.80;1500932;94;21198;-43
2022/12/24 03:33:39;;;;;;;96.37;51.18;;;;;;;2.41;93.87;93732.92;1500230;94;21319;-42
2022/12/24 03:36:07;;;;;;;89.87;48.92;;;;;;;2.47;93.84;93736.70;1530340;92;21076;-42
2022/12/24 03:38:34;;;;;;;101.00;56.15;;;;;;;2.48;93.51;93731.44;1503463;94;21581;-42
2022/12/24 03:41:01;;;;;;;94.07;54.45;;;;;;;2.52;93.34;93737.55;1528571;92;21198;-43
2022/12/24 03:43:27;;;;;;;118.30;67.97;;;;;;;2.52;93.42;93737.55;1500597;94;21113;-42
2022/12/24 03:45:54;;;;;;;104.38;61.58;;;;;;;2.61;93.74;93726.88;1489711;94;21321;-43
2022/12/24 03:48:21;;;;;;;115.75;60.58;;;;;;;2.70;93.49;93724.36;1532585;89;21046;-43
2022/12/24 03:50:47;;;;;;;105.87;55.98;;;;;;;2.75;93.06;93724.62;1599319;89;21079;-42
2022/12/24 03:53:15;;;;;;;98.45;52.98;;;;;;;2.84;93.23;93726.77;1583738;89;21150;-43
2022/12/24 03:55:41;;;;;;;78.37;48.02;;;;;;;2.88;92.50;93727.44;1601296;88;21145;-47
2022/12/24 03:58:08;;;;;;;69.80;45.25;;;;;;;2.88;92.34;93719.30;1638607;83;21264;-43
2022/12/24 04:00:35;;;;;;;70.03;44.35;;;;;;;2.88;92.43;93716.58;1702610;83;21097;-43
2022/12/24 04:03:02;;;;;;;51.55;32.80;;;;;;;2.90;92.50;93720.37;1684180;83;21124;-43
2022/12/24 04:05:28;;;;;;;38.75;26.55;;;;;;;2.93;92.79;93722.28;1693058;83;21034;-43
2022/12/24 04:07:55;;;;;;;38.78;27.87;;;;;;;2.98;92.93;93720.98;1692175;83;21503;-43
2022/12/24 04:10:22;;;;;;;36.40;24.43;;;;;;;3.08;93.01;93719.98;1691156;83;21029;-43
2022/12/24 04:12:48;;;;;;;39.48;25.37;;;;;;;3.17;92.95;93708.69;1690884;83;21091;-43
2022/12/24 04:15:15;;;;;;;44.00;31.57;;;;;;;3.19;92.54;93713.11;1685783;83;20994;-43
2022/12/24 04:17:42;;;;;;;45.60;30.97;;;;;;;3.26;92.93;93709.45;1688241;83;20996;-43
2022/12/24 04:20:11;;;;;;;55.03;34.92;;;;;;;3.34;92.74;93714.88;1713867;79;21104;-43
2022/12/24 04:22:38;;;;;;;79.35;45.70;;;;;;;3.39;92.14;93708.94;1793595;79;21244;-43
2022/12/24 04:25:06;;;;;;;89.05;54.55;;;;;;;3.36;91.55;93717.92;1802837;79;20942;-43
2022/12/24 04:27:34;;;;;;;71.70;42.93;;;;;;;3.34;91.21;93717.59;1816231;78;20946;-43
2022/12/24 04:30:00;;;;;;;75.92;43.50;;;;;;;3.28;90.91;93709.79;1788383;79;21010;-43
2022/12/24 04:32:27;;;;;;;67.25;42.17;;;;;;;3.27;91.13;93713.09;1798590;78;20993;-43
2022/12/24 04:34:54;;;;;;;66.47;41.53;;;;;;;3.31;91.06;93711.66;1792707;79;21271;-43
2022/12/24 04:37:22;;;;;;;66.10;39.33;;;;;;;3.29;90.74;93709.95;1802468;78;21474;-42
2022/12/24 04:39:49;;;;;;;67.40;42.20;;;;;;;3.32;91.16;93710.45;1771327;80;21010;-42
2022/12/24 04:42:15;;;;;;;109.10;62.60;;;;;;;3.44;91.42;93702.98;1779036;79;21092;-42
2022/12/24 04:44:42;;;;;;;93.42;53.05;;;;;;;3.51;91.18;93702.96;1774985;79;21458;-43
2022/12/24 04:47:09;;;;;;;69.00;43.00;;;;;;;3.58;90.87;93706.88;1763949;79;21254;-43
2022/12/24 04:49:36;;;;;;;71.37;40.23;;;;;;;3.50;90.13;93705.52;1797329;79;20997;-43
2022/12/24 04:52:03;;;;;;;97.42;51.63;;;;;;;3.44;90.33;93698.91;1791223;78;20990;-44
2022/12/24 04:54:30;;;;;;;82.85;49.35;;;;;;;3.48;90.53;93703.65;1812625;79;21426;-43
2022/12/24 04:56:56;;;;;;;104.17;57.65;;;;;;;3.48;90.72;93701.09;1808252;78;20954;-42
2022/12/24 04:59:23;;;;;;;109.37;63.13;;;;;;;3.56;91.06;93699.74;1789973;78;21248;-43
2022/12/24 05:01:49;;;;;;;106.40;60.60;;;;;;;3.61;90.73;93712.81;1785029;78;21116;-42
2022/12/24 05:04:16;;;;;;;116.60;65.50;;;;;;;3.64;90.31;93709.23;1812748;78;20968;-43
2022/12/24 05:06:43;;;;;;;123.00;71.35;;;;;;;3.63;90.13;93709.65;1799378;79;21543;-42
2022/12/24 05:09:09;;;;;;;132.75;75.87;;;;;;;3.71;90.56;93697.41;1805693;78;21430;-43
2022/12/24 05:11:36;;;;;;;117.28;67.53;;;;;;;3.78;90.27;93693.91;1812390;78;22026;-42
2022/12/24 05:14:03;;;;;;;116.10;69.17;;;;;;;3.78;89.65;93701.29;1783681;79;20962;-43
2022/12/24 05:16:31;;;;;;;96.60;55.63;;;;;;;3.67;89.21;93692.05;1784852;80;21186;-42
2022/12/24 05:18:57;;;;;;;100.65;57.85;;;;;;;3.58;89.20;93697.36;1730650;81;21582;-42
2022/12/24 05:21:24;;;;;;;108.22;62.67;;;;;;;3.55;89.31;93695.47;1699244;83;20990;-42
2022/12/24 05:26:47;;;;;;;97.05;61.70;;;;;;;3.52;89.76;93694.97;1700800;83;20964;-43
2022/12/24 05:29:14;;;;;;;95.50;57.95;;;;;;;3.54;89.91;93694.55;1598504;88;21064;-42
2022/12/24 05:31:43;;;;;;;96.78;57.45;;;;;;;3.52;89.78;93692.25;1617786;86;21240;-42
2022/12/24 05:34:12;;;;;;;99.30;56.70;;;;;;;3.45;89.70;93682.77;1609022;87;21249;-42
2022/12/24 05:36:38;;;;;;;103.35;59.93;;;;;;;3.45;89.90;93674.00;1605461;88;21279;-42
2022/12/24 05:39:05;;;;;;;103.17;61.45;;;;;;;3.52;90.62;93666.42;1620318;87;21057;-42
2022/12/24 05:41:32;;;;;;;102.32;61.28;;;;;;;3.57;90.18;93676.80;1599702;87;21688;-43
2022/12/24 05:43:58;;;;;;;119.80;70.87;;;;;;;3.62;90.27;93669.47;1637177;85;21055;-43
2022/12/24 05:46:25;;;;;;;130.50;77.20;;;;;;;3.62;89.89;93668.11;1635452;86;21009;-43
2022/12/24 05:48:52;;;;;;;139.03;80.20;;;;;;;3.63;89.84;93660.70;1634120;86;22106;-43
2022/12/24 05:51:21;;;;;;;110.97;65.20;;;;;;;3.66;89.82;93653.07;1641848;86;21214;-44
2022/12/24 05:53:49;;;;;;;126.95;76.82;;;;;;;3.73;90.26;93662.39;1643180;86;21185;-43
2022/12/24 05:56:22;;;;;;;145.32;86.35;;;;;;;3.80;90.35;93655.39;1636238;86;21583;-43
2022/12/24 05:58:49;;;;;;;138.72;81.12;;;;;;;3.85;90.00;93652.16;1632716;86;21661;-42
2022/12/24 06:01:16;;;;;;;140.47;83.30;;;;;;;3.91;90.08;93658.59;1632997;86;21169;-42
2022/12/24 06:03:43;;;;;;;125.58;76.00;;;;;;;3.98;89.81;93652.94;1639032;86;20895;-44
2022/12/24 06:06:18;;;;;;;126.12;70.20;;;;;;;4.05;89.54;93660.30;1653671;84;20998;-43
2022/12/24 06:08:44;;;;;;;;;;;;;;;4.07;88.69;93661.25;1647065;86;21121;-44
2022/12/24 06:11:13;;;;;;;116.42;68.40;;;;;;;4.05;88.50;93655.48;1632166;86;20261;-44
2022/12/24 06:13:40;;;;;;;123.60;75.57;;;;;;;4.03;88.50;93651.81;1635840;86;21187;-43
2022/12/24 06:16:12;;;;;;;110.48;66.97;;;;;;;4.02;88.13;93654.38;1642480;86;21057;-43
2022/12/24 06:18:38;;;;;;;131.45;80.20;;;;;;;4.02;88.37;93645.47;1637249;86;21014;-42
2022/12/24 06:21:06;;;;;;;164.75;95.83;;;;;;;3.98;88.35;93638.75;1647693;85;21127;-42
2022/12/24 06:23:36;;;;;;;152.25;89.87;;;;;;;4.00;88.50;93632.86;1642871;85;21216;-43
2022/12/24 06:26:04;;;;;;;169.35;103.27;;;;;;;4.02;88.32;93633.97;1715432;80;21336;-44
2022/12/24 06:28:34;;;;;;;184.03;107.83;;;;;;;4.07;88.40;93627.98;1770087;80;21002;-43
2022/12/24 06:31:02;;;;;;;136.85;87.90;;;;;;;4.12;88.43;93628.83;1770653;80;21131;-43
2022/12/24 06:33:31;;;;;;;130.15;84.22;;;;;;;4.13;88.24;93628.22;1750207;80;21100;-43
2022/12/24 06:35:58;;;;;;;130.35;82.37;;;;;;;4.13;88.22;93617.33;1765479;80;20945;-44
2022/12/24 06:38:24;;;;;;;155.60;91.70;;;;;;;4.16;88.62;93619.96;1739098;80;21320;-43
2022/12/24 06:40:51;;;;;;;147.35;88.25;;;;;;;4.18;88.12;93620.87;1761362;80;21088;-44
2022/12/24 06:43:18;;;;;;;154.18;85.25;;;;;;;4.20;88.33;93619.86;1771503;80;21546;-41
2022/12/24 06:45:46;;;;;;;164.75;97.42;;;;;;;4.26;88.23;93615.39;1754009;80;21504;-43
2022/12/24 06:48:14;;;;;;;165.37;99.85;;;;;;;4.29;88.19;93615.30;1779611;80;20966;-43
2022/12/24 06:50:41;;;;;;;172.80;106.40;;;;;;;4.39;88.40;93616.92;1754125;80;21239;-50
2022/12/24 06:53:08;;;;;;;178.60;110.92;;;;;;;4.41;87.91;93616.50;1764266;80;20983;-42
2022/12/24 06:55:35;;;;;;;182.57;113.95;;;;;;;4.40;87.57;93613.00;1752606;80;21045;-43
2022/12/24 06:58:03;;;;;;;173.85;104.75;;;;;;;4.43;87.84;93618.94;1753737;80;21049;-43
2022/12/24 07:00:29;;;;;;;194.67;106.05;;;;;;;4.51;87.65;93610.73;1764654;80;21418;-44
2022/12/24 11:03:36;;;;;;;26.33;16.15;;;;;;;8.13;80.91;93644.70;1832906;77;26138;-45
2022/12/24 11:06:14;;;;;;;28.80;17.15;;;;;;;8.26;79.06;93650.78;1793300;78;21009;-45
2022/12/24 11:08:43;;;;;;;30.62;18.90;;;;;;;8.47;78.52;93640.86;1797798;78;21161;-45
2022/12/24 11:11:18;;;;;;;26.25;17.10;;;;;;;8.61;77.70;93653.31;1819900;78;21458;-46
2022/12/24 11:13:56;;;;;;;27.25;17.50;;;;;;;8.72;77.04;93650.86;1776607;79;20852;-47
2022/12/24 11:16:30;;;;;;;29.55;20.10;;;;;;;8.84;76.00;93650.52;1757810;80;21024;-46
2022/12/24 11:19:00;;;;;;;11.85;9.20;;;;;;;8.93;74.56;93656.73;1773263;80;20967;-47
2022/12/24 11:21:33;;;;;;;13.13;8.58;;;;;;;9.03;73.51;93655.48;1780462;79;21228;-47
2022/12/24 11:24:05;;;;;;;33.60;24.82;;;;;;;9.10;73.38;93649.66;1737774;80;20966;-45
2022/12/24 11:26:33;;;;;;;25.37;19.48;;;;;;;9.21;72.98;93663.64;1778094;78;21022;-52
2022/12/24 11:29:21;;;;;;;15.18;10.78;;;;;;;9.35;72.65;93662.94;1769310;80;21005;-46
2022/12/24 11:31:48;;;;;;;13.83;8.03;;;;;;;9.58;72.15;93670.47;1711184;82;21026;-46
2022/12/24 11:34:34;;;;;;;10.63;8.50;;;;;;;9.78;70.55;93667.27;1671802;85;21820;-45
2022/12/24 11:37:23;;;;;;;15.18;11.28;;;;;;;10.15;70.47;93667.19;1654878;85;21218;-45
2022/12/24 11:39:53;;;;;;;13.48;10.10;;;;;;;11.34;69.48;93668.41;1671074;85;21101;-46
2022/12/24 11:42:28;;;;;;;17.95;12.70;;;;;;;12.66;64.61;93671.52;1652028;86;21988;-46
2022/12/24 11:44:56;;;;;;;18.35;12.18;;;;;;;13.22;61.89;93666.08;1632031;85;21078;-45
2022/12/24 11:47:38;;;;;;;17.10;10.45;;;;;;;13.83;60.46;93666.52;1605535;86;21328;-47
2022/12/24 11:50:30;;;;;;;19.30;12.20;;;;;;;14.59;57.84;93665.52;1558114;91;21069;-46
2022/12/24 11:53:17;;;;;;;17.30;10.10;;;;;;;15.45;54.89;93675.75;1547440;91;21010;-45
2022/12/24 11:55:55;;;;;;;11.60;8.28;;;;;;;16.07;52.71;93684.27;1480615;96;21159;-45
2022/12/24 11:58:42;;;;;;;14.33;9.15;;;;;;;15.71;51.08;93682.55;1469578;97;21167;-45
2022/12/24 12:01:33;;;;;;;12.60;8.63;;;;;;;14.91;52.87;93691.02;1488756;95;21257;-46
2022/12/24 12:04:06;;;;;;;15.58;10.60;;;;;;;14.12;54.61;93686.91;1482742;95;21052;-46
2022/12/24 12:06:44;;;;;;;18.55;13.15;;;;;;;13.39;56.06;93684.92;1416663;99;21212;-52
2022/12/24 12:09:21;;;;;;;16.95;10.35;;;;;;;12.88;57.63;93692.47;1416848;99;21164;-46
2022/12/24 12:12:00;;;;;;;22.35;13.75;;;;;;;12.52;58.50;93683.44;1421087;98;21143;-46
2022/12/24 12:14:49;;;;;;;16.40;11.35;;;;;;;12.22;59.18;93697.23;1368233;103;22189;-47
2022/12/24 12:17:46;;;;;;;17.42;10.08;;;;;;;11.90;59.85;93698.94;1318687;107;21906;-45
2022/12/24 12:20:25;;;;;;;10.03;7.40;;;;;;;11.67;60.54;93698.47;1339161;106;21161;-47
2022/12/24 12:23:18;;;;;;;10.35;8.90;;;;;;;11.45;61.04;93710.50;1349374;105;21848;-45
2022/12/24 12:25:59;;;;;;;;;;;;;;;11.25;60.96;93724.20;1367054;104;21136;-46
2022/12/24 12:28:42;;;;;;;10.63;8.28;;;;;;;11.04;61.47;93720.61;1408314;100;21516;-51
2022/12/24 12:31:26;;;;;;;16.75;12.23;;;;;;;10.88;62.11;93729.34;1380494;102;21218;-54
2022/12/24 12:34:20;;;;;;;18.85;13.30;;;;;;;10.79;62.84;93736.91;1380561;102;21579;-53
2022/12/24 12:37:32;;;;;;;22.22;15.00;;;;;;;10.68;63.58;93741.45;1348785;105;21117;-52
2022/12/24 12:40:00;;;;;;;29.35;17.40;;;;;;;10.55;64.21;93747.19;1307326;107;21271;-52
2022/12/24 12:42:34;;;;;;;23.32;14.98;;;;;;;10.40;64.98;93745.64;1314657;109;21279;-45
2022/12/24 12:45:48;;;;;;;38.58;25.52;;;;;;;10.29;65.36;93748.92;1315161;109;21108;-54
2022/12/24 12:48:49;;;;;;;49.33;34.15;;;;;;;10.23;65.75;93751.41;1315133;109;21242;-53
2022/12/24 12:51:25;;;;;;;43.40;28.98;;;;;;;10.19;66.17;93757.08;1315300;109;21244;-52
2022/12/24 12:54:17;;;;;;;47.75;32.50;;;;;;;10.18;66.29;93758.94;1348587;106;21283;-52
2022/12/24 12:56:45;;;;;;;45.10;30.82;;;;;;;10.16;66.49;93754.52;1386928;102;21349;-50
2022/12/24 12:59:40;;;;;;;63.08;41.05;;;;;;;10.13;66.71;93761.70;1360474;104;21120;-45
2022/12/24 13:02:31;;;;;;;58.87;36.53;;;;;;;10.13;66.80;93770.58;1355688;104;21661;-46
2022/12/24 13:05:35;;;;;;;59.80;40.03;;;;;;;10.11;66.91;93775.16;1503302;93;21230;-45
2022/12/24 13:08:35;;;;;;;40.43;27.15;;;;;;;10.10;67.03;93779.13;1534775;92;21081;-46
2022/12/24 13:11:32;;;;;;;34.45;22.93;;;;;;;10.07;66.92;93784.79;1570255;88;21887;-46
2022/12/24 13:14:37;;;;;;;38.80;25.43;;;;;;;9.96;67.10;93785.91;1621002;88;21837;-45
2022/12/24 13:17:29;;;;;;;29.95;19.15;;;;;;;9.88;67.38;93792.95;1617706;88;21109;-47
2022/12/24 13:20:19;;;;;;;32.78;23.18;;;;;;;9.85;67.59;93795.27;1610730;88;21053;-46
2022/12/24 13:23:00;;;;;;;30.72;20.23;;;;;;;9.80;67.72;93800.02;1621109;87;21637;-46
2022/12/24 13:25:41;;;;;;;22.50;16.30;;;;;;;9.73;67.98;93801.11;1626715;87;21309;-47
2022/12/24 13:28:25;;;;;;;23.12;16.52;;;;;;;9.71;68.14;93801.42;1542329;89;21002;-45
2022/12/24 13:31:23;;;;;;;42.80;26.02;;;;;;;9.67;68.37;93807.70;1573807;90;21104;-45
2022/12/24 13:33:54;;;;;;;54.80;31.25;;;;;;;9.62;68.54;93813.20;1623743;84;21125;-46
2022/12/24 13:36:22;;;;;;;51.77;29.32;;;;;;;9.53;68.77;93806.98;1674086;84;21100;-46
2022/12/24 13:38:56;;;;;;;54.33;33.30;;;;;;;9.45;69.24;93809.91;1673638;84;21271;-46
2022/12/24 13:41:39;;;;;;;82.60;51.95;;;;;;;9.34;69.72;93809.63;1670715;83;22043;-45
2022/12/24 13:44:14;;;;;;;95.50;56.90;;;;;;;9.24;70.11;93806.14;1670017;83;21115;-45
2022/12/24 13:47:14;;;;;;;95.65;62.83;;;;;;;9.21;70.49;93809.07;1670733;84;21528;-46
2022/12/24 13:49:49;;;;;;;99.03;60.30;;;;;;;9.21;70.94;93812.56;1668233;84;21026;-46
2022/12/24 13:52:22;;;;;;;133.52;76.47;;;;;;;9.24;71.11;93816.38;1671765;84;21186;-46
2022/12/24 13:54:58;;;;;;;156.25;91.02;;;;;;;9.24;71.48;93821.86;1648374;85;21100;-45
2022/12/24 13:57:53;;;;;;;174.38;102.95;;;;;;;9.24;71.71;93824.61;1669031;84;21580;-47
2022/12/24 14:00:25;;;;;;;201.90;114.62;;;;;;;9.23;72.05;93829.32;1674489;84;21574;-46
2022/12/24 14:03:16;;;;;;;209.27;116.42;;;;;;;9.18;72.53;93826.42;1672651;84;21081;-46
2022/12/24 14:05:47;;;;;;;216.40;119.25;;;;;;;9.14;72.82;93829.95;1732440;80;22116;-47
2022/12/24 14:08:25;;;;;;;202.87;115.10;;;;;;;9.08;73.16;93835.91;1754031;80;21464;-45
2022/12/24 14:11:08;;;;;;;129.45;73.75;;;;;;;9.07;73.24;93839.88;1765023;80;21077;-45
2022/12/24 14:13:47;;;;;;;123.15;74.47;;;;;;;9.04;73.44;93843.54;1754779;80;20971;-45
2022/12/24 14:16:29;;;;;;;86.37;52.55;;;;;;;9.00;73.55;93849.17;1783450;80;21054;-45
2022/12/24 14:19:19;;;;;;;92.00;54.63;;;;;;;8.96;73.74;93854.66;1760253;80;21818;-45
2022/12/24 14:22:04;;;;;;;109.67;63.58;;;;;;;8.97;73.95;93854.20;1756586;80;21039;-45
2022/12/24 14:24:39;;;;;;;127.27;74.03;;;;;;;8.98;73.99;93856.33;1757766;81;20956;-46
2022/12/24 14:27:30;;;;;;;291.47;159.87;;;;;;;8.97;74.11;93856.17;1760096;80;20999;-45
2022/12/24 14:30:21;;;;;;;212.08;120.08;;;;;;;8.90;74.36;93858.61;1720778;81;21163;-46
2022/12/24 14:32:50;;;;;;;104.87;62.17;;;;;;;8.84;74.65;93858.30;1716774;80;21189;-46
2022/12/24 14:35:23;;;;;;;83.75;49.70;;;;;;;8.81;74.86;93865.33;1745973;81;21098;-45
2022/12/24 14:38:13;;;;;;;90.22;53.15;;;;;;;8.77;74.93;93863.35;1723771;81;21068;-46
2022/12/24 14:41:04;;;;;;;162.03;91.53;;;;;;;8.69;75.22;93867.00;1719810;81;21037;-46
2022/12/24 14:43:51;;;;;;;150.75;89.17;;;;;;;8.61;75.52;93867.75;1701495;83;20969;-45
2022/12/24 14:46:46;;;;;;;132.87;78.57;;;;;;;8.53;76.04;93871.40;1699382;83;21176;-46
2022/12/24 14:49:44;;;;;;;126.20;71.70;;;;;;;8.54;76.10;93874.89;1696852;83;21565;-45
2022/12/24 14:52:43;;;;;;;110.28;63.92;;;;;;;8.52;76.03;93873.98;1702081;83;21577;-45
2022/12/24 14:55:38;;;;;;;95.55;56.88;;;;;;;8.44;76.11;93881.58;1698860;84;21061;-47
2022/12/24 14:58:19;;;;;;;122.95;67.70;;;;;;;8.36;76.32;93888.55;1702835;83;21569;-46
2022/12/24 15:00:45;;;;;;;117.67;65.97;;;;;;;8.25;76.47;93899.95;1646529;84;21291;-49
2022/12/24 19:03:15;;;;;;;362.12;187.55;;;;;;;4.14;93.49;94045.54;1811932;77;25994;-44
2022/12/24 19:05:42;;;;;;;344.00;175.20;;;;;;;4.09;93.39;94054.80;1759854;80;21675;-44
2022/12/24 19:08:09;;;;;;;287.12;152.43;;;;;;;4.09;93.56;94053.43;1800829;78;21342;-43
2022/12/24 19:10:37;;;;;;;313.80;169.13;;;;;;;4.18;94.01;94060.41;1778074;79;21836;-43
2022/12/24 19:13:04;;;;;;;364.40;202.78;;;;;;;4.26;93.90;94058.47;1783864;78;21014;-43
2022/12/24 19:15:32;;;;;;;367.48;200.68;;;;;;;4.33;93.80;94058.91;1797780;78;21018;-46
2022/12/24 19:17:59;;;;;;;334.00;177.38;;;;;;;4.42;93.86;94067.27;1798177;78;21037;-43
2022/12/24 19:20:26;;;;;;;324.05;170.68;;;;;;;4.46;93.49;94070.05;1805829;78;21162;-43
2022/12/24 19:22:54;;;;;;;462.30;241.57;;;;;;;4.52;93.33;94071.11;1791525;79;21558;-43
2022/12/24 19:25:21;;;;;;;399.32;218.20;;;;;;;4.54;93.01;94067.36;1804578;78;21049;-43
2022/12/24 19:27:49;;;;;;;425.25;235.90;;;;;;;4.56;92.81;94066.33;1814372;78;21009;-43
2022/12/24 19:30:17;;;;;;;355.05;188.93;;;;;;;4.57;93.07;94070.59;1789886;78;20970;-44
2022/12/24 19:32:44;;;;;;;316.82;179.55;;;;;;;4.64;93.10;94072.38;1785682;79;22116;-43
2022/12/24 19:35:12;;;;;;;297.45;155.93;;;;;;;4.72;92.97;94079.96;1794553;78;21001;-44
2022/12/24 19:37:40;;;;;;;285.85;155.75;;;;;;;4.76;92.58;94082.00;1803286;78;21599;-46
2022/12/24 19:40:09;;;;;;;262.48;146.77;;;;;;;4.79;92.29;94082.50;1798033;78;21010;-43
2022/12/24 19:42:38;;;;;;;317.37;177.32;;;;;;;4.85;92.27;94090.36;1776596;79;21449;-44
2022/12/24 19:45:07;;;;;;;296.75;170.40;;;;;;;4.87;91.99;94092.64;1786959;79;21159;-44
2022/12/24 19:47:35;;;;;;;316.82;186.30;;;;;;;4.87;91.76;94094.00;1721363;82;21081;-43
2022/12/24 19:50:04;;;;;;;347.10;193.37;;;;;;;4.88;92.00;94093.59;1728760;81;20983;-44
2022/12/24 19:52:31;;;;;;;330.67;185.32;;;;;;;4.91;91.62;94094.09;1694711;83;20987;-43
2022/12/24 19:54:59;;;;;;;295.80;169.97;;;;;;;5.01;91.82;94104.56;1699407;83;21071;-44
2022/12/24 19:57:26;;;;;;;308.57;180.03;;;;;;;5.09;91.64;94099.88;1704631;83;22027;-43
2022/12/24 19:59:53;;;;;;;315.90;182.12;;;;;;;5.10;91.13;94098.67;1702539;83;21123;-44
2022/12/24 20:02:21;;;;;;;294.35;167.85;;;;;;;5.11;90.71;94116.56;1784415;78;20995;-45
2022/12/24 20:04:49;;;;;;;298.77;164.35;;;;;;;5.13;90.66;94113.42;1794971;78;21080;-44
2022/12/24 20:07:17;;;;;;;267.10;147.10;;;;;;;5.15;90.62;94126.77;1798090;78;21072;-44
2022/12/24 20:09:44;;;;;;;260.15;148.25;;;;;;;5.14;90.17;94129.34;1791889;79;21828;-44
2022/12/24 20:12:11;;;;;;;516.80;298.13;;;;;;;5.16;90.32;94126.94;1798968;79;21060;-43
2022/12/24 20:14:38;;;;;;;460.30;262.42;;;;;;;5.18;90.38;94121.83;1800288;79;20926;-44
2022/12/24 20:17:05;;;;;;;399.92;226.50;;;;;;;5.23;90.35;94122.70;1808005;79;21470;-43
2022/12/24 20:19:32;;;;;;;373.30;206.45;;;;;;;5.25;89.96;94127.13;1783117;79;21002;-42
2022/12/24 20:21:59;;;;;;;355.52;192.62;;;;;;;5.25;89.57;94123.03;1758102;79;21239;-42
2022/12/24 20:24:27;;;;;;;316.77;178.62;;;;;;;5.24;89.32;94133.77;1714815;81;20982;-42
2022/12/24 20:26:54;;;;;;;360.85;208.45;;;;;;;5.27;89.21;94127.45;1691447;83;21015;-43
2022/12/24 20:29:21;;;;;;;387.57;222.90;;;;;;;5.33;89.36;94129.82;1729865;81;21027;-43
2022/12/24 20:31:48;;;;;;;373.95;216.90;;;;;;;5.40;89.35;94133.75;1764470;79;21518;-42
2022/12/24 20:34:16;;;;;;;333.95;189.40;;;;;;;5.45;89.08;94139.43;1739769;80;22186;-42
2022/12/24 20:36:43;;;;;;;325.95;180.78;;;;;;;5.47;88.66;94145.83;1747864;80;21076;-44
2022/12/24 20:39:10;;;;;;;306.98;166.75;;;;;;;5.46;88.27;94148.39;1770812;79;21057;-43
2022/12/24 20:41:38;;;;;;;278.37;150.45;;;;;;;5.44;88.12;94156.23;1761869;79;21053;-44
2022/12/24 20:44:05;;;;;;;234.10;131.55;;;;;;;5.45;88.25;94152.31;1732997;82;21010;-43
2022/12/24 20:46:34;;;;;;;259.83;146.80;;;;;;;5.47;88.22;94149.92;1744157;81;21105;-43
2022/12/24 20:49:01;;;;;;;304.30;175.40;;;;;;;5.45;88.02;94152.31;1766828;80;21002;-43
2022/12/24 20:51:28;;;;;;;279.25;154.42;;;;;;;5.45;88.27;94158.52;1760298;80;20966;-43
2022/12/24 20:53:58;;;;;;;253.18;142.85;;;;;;;5.48;88.17;94157.69;1686102;83;21011;-43
2022/12/24 20:56:25;;;;;;;240.60;137.18;;;;;;;5.50;87.92;94170.30;1707813;83;21478;-44
2022/12/24 20:58:52;;;;;;;316.40;169.90;;;;;;;5.48;87.53;94163.73;1698564;83;21242;-42
2022/12/24 21:01:23;;;;;;;349.95;195.30;;;;;;;5.44;87.35;94163.81;1698810;83;21046;-43
2022/12/24 21:03:52;;;;;;;395.20;218.95;;;;;;;5.43;87.40;94171.08;1692919;83;21133;-43
2022/12/24 21:06:20;;;;;;;393.95;224.42;;;;;;;5.36;87.32;94177.47;1709611;83;21757;-43
2022/12/24 21:08:48;;;;;;;399.70;225.30;;;;;;;5.27;87.27;94167.74;1733174;80;21021;-43
2022/12/24 21:14:00;;;;;;;330.80;182.22;;;;;;;5.13;87.71;94165.97;1768988;80;21502;-43
2022/12/24 21:16:31;;;;;;;273.30;147.13;;;;;;;5.09;87.90;94169.38;1767255;79;21029;-42
2022/12/24 21:18:58;;;;;;;360.38;184.75;;;;;;;5.08;88.21;94168.43;1766048;80;21010;-43
2022/12/24 21:21:25;;;;;;;309.77;172.95;;;;;;;5.06;88.48;94170.23;1768395;80;21064;-43
2022/12/24 21:23:52;;;;;;;346.35;187.77;;;;;;;5.12;89.11;94180.04;1759022;80;21127;-43
2022/12/24 21:26:19;;;;;;;286.45;164.97;;;;;;;5.15;88.78;94173.73;1759283;80;20947;-44
2022/12/24 21:28:46;;;;;;;317.20;171.28;;;;;;;5.14;88.51;94183.86;1702666;83;21109;-44
2022/12/24 21:31:13;;;;;;;299.67;157.40;;;;;;;5.12;88.75;94184.87;1684014;83;21082;-43
2022/12/24 21:33:40;;;;;;;284.25;154.00;;;;;;;5.15;88.89;94184.64;1713249;83;21043;-42
2022/12/24 21:36:08;;;;;;;309.57;163.92;;;;;;;5.20;88.85;94180.81;1693105;83;21308;-43
2022/12/24 21:38:36;;;;;;;280.35;155.85;;;;;;;5.24;88.89;94186.33;1680386;83;20968;-43
2022/12/24 21:41:07;;;;;;;295.33;162.57;;;;;;;5.29;88.53;94192.66;1693997;83;21488;-43
2022/12/24 21:43:35;;;;;;;306.80;170.72;;;;;;;5.28;88.25;94188.98;1714065;83;21090;-51
2022/12/24 21:46:13;;;;;;;326.82;176.90;;;;;;;5.32;88.74;94181.47;1704376;83;21070;-43
2022/12/24 21:51:27;;;;;;;332.12;185.78;;;;;;;5.30;87.99;94183.86;1705105;83;21102;-46
2022/12/24 21:59:24;;;;;;;353.73;210.17;;;;;;;5.04;87.53;94180.80;1705806;81;21022;-43
2022/12/24 22:01:51;;;;;;;394.65;229.60;;;;;;;4.92;87.97;94181.47;1754906;80;21222;-44
2022/12/24 22:04:18;;;;;;;425.80;243.00;;;;;;;4.85;88.25;94178.91;1758369;80;21000;-44
2022/12/24 22:12:15;;;;;;;428.35;250.30;;;;;;;4.71;88.67;94194.20;1757928;79;20993;-43
2022/12/24 22:14:42;;;;;;;438.10;254.32;;;;;;;4.69;89.16;94189.00;1766881;80;21249;-46
2022/12/24 22:17:09;;;;;;;426.73;246.18;;;;;;;4.70;89.49;94185.87;1770307;80;21115;-43
2022/12/24 22:19:36;;;;;;;409.67;230.47;;;;;;;4.74;89.64;94187.13;1725358;82;21548;-44
2022/12/24 22:22:03;;;;;;;389.23;217.68;;;;;;;4.78;89.71;94188.59;1683223;83;21006;-43
2022/12/24 22:24:30;;;;;;;391.57;213.87;;;;;;;4.85;89.64;94191.17;1679634;83;21077;-44
2022/12/24 22:26:57;;;;;;;391.52;219.87;;;;;;;4.87;89.45;94190.16;1750558;80;21653;-43
2022/12/24 22:29:24;;;;;;;399.35;222.90;;;;;;;4.88;89.40;94196.35;1776203;79;21084;-44
2022/12/24 22:31:50;;;;;;;336.15;190.68;;;;;;;4.88;89.48;94199.86;1773603;80;20993;-43
2022/12/24 22:34:17;;;;;;;325.07;174.15;;;;;;;4.90;89.25;94209.73;1719946;82;21011;-43
2022/12/24 22:36:44;;;;;;;305.43;160.00;;;;;;;4.87;88.94;94213.89;1783085;80;21001;-44
2022/12/24 22:39:10;;;;;;;302.05;160.35;;;;;;;4.82;88.76;94213.80;1768048;79;21190;-43
2022/12/24 22:41:37;;;;;;;258.20;142.85;;;;;;;4.79;89.02;94228.88;1767255;79;20997;-43
2022/12/24 22:44:04;;;;;;;245.48;126.05;;;;;;;4.79;89.49;94233.72;1730032;82;21081;-42
2022/12/24 22:46:31;;;;;;;216.12;120.80;;;;;;;4.84;89.87;94238.69;1748055;81;21076;-44
2022/12/24 22:48:57;;;;;;;194.30;108.92;;;;;;;4.82;90.03;94241.05;1680888;83;21507;-43
2022/12/24 22:51:24;;;;;;;176.32;94.85;;;;;;;4.84;90.37;94244.72;1689610;83;21180;-43
2022/12/24 22:53:51;;;;;;;189.77;106.85;;;;;;;4.90;90.75;94241.66;1700706;83;21038;-44
2022/12/24 22:56:20;;;;;;;197.80;110.70;;;;;;;5.04;91.17;94239.41;1698143;83;21582;-43
2022/12/24 22:58:53;;;;;;;199.87;112.05;;;;;;;5.18;91.32;94249.96;1707924;83;21062;-44
2022/12/24 23:01:35;;;;;;;209.30;118.22;;;;;;;5.30;90.81;94254.75;1688452;83;21105;-46
2022/12/24 23:04:03;;;;;;;250.87;131.03;;;;;;;5.31;90.56;94258.44;1711768;83;21452;-42